Boston, Massachusetts
Traffic Map
Current Weather Conditions
Boston, Massachusetts
Few Clouds
Few Clouds
67°
Feels Like: 67°
Wind Chill: 67° Ceiling: Unl
Heat Index: 67° Visibility: 10mi
Dew Point: 60° Wind: 3mph
Humidity: 79% Direction: ° ()
Pressure: 30.1in Gusts: 0mph
Raw Report DataKBOS 311154Z VRB03KT 10SM FEW250 19/16 A3010 RMK AO2 SLP193 T01940156 10194 20167 51012
Traffic Incident Summary
Active as of:
Severity:
Category:
InformationThere was an issue retrieving the traffic information for this location. Please try a different location or try again shortly.
Advertisements
Track Severe Weather on mobile